createdAt,value
2023-04-21T00:02:15.752Z,31.00
2023-04-21T00:05:03.754Z,26.70
2023-04-21T00:07:52.579Z,25.48
2023-04-21T00:10:41.430Z,25.35
2023-04-21T00:13:29.007Z,26.00
2023-04-21T00:16:16.441Z,28.45
2023-04-21T00:19:07.184Z,26.85
2023-04-21T00:21:58.811Z,28.30
2023-04-21T00:24:46.590Z,29.92
2023-04-21T00:27:35.616Z,28.10
2023-04-21T00:30:25.091Z,29.38
2023-04-21T00:33:12.664Z,23.77
2023-04-21T00:36:00.218Z,27.98
2023-04-21T00:38:48.851Z,26.58
2023-04-21T00:41:38.677Z,28.15
2023-04-21T00:44:27.556Z,29.77
2023-04-21T00:47:15.331Z,22.60
2023-04-21T00:50:04.250Z,23.67
2023-04-21T00:52:52.070Z,26.27
2023-04-21T00:55:39.998Z,26.10
2023-04-21T00:58:27.291Z,25.20
2023-04-21T01:01:17.476Z,24.75
2023-04-21T01:04:07.168Z,25.20
2023-04-21T01:06:54.837Z,28.65
2023-04-21T01:09:44.095Z,29.73
2023-04-21T01:12:31.859Z,27.42
2023-04-21T01:15:20.176Z,26.63
2023-04-21T01:18:09.385Z,28.25
2023-04-21T01:20:58.452Z,31.25
2023-04-21T01:23:47.764Z,27.65
2023-04-21T01:26:35.520Z,29.05
2023-04-21T01:29:23.125Z,28.67
2023-04-21T01:32:13.554Z,22.70
2023-04-21T01:35:03.842Z,30.17
2023-04-21T01:37:51.517Z,26.52
2023-04-21T01:40:43.125Z,29.65
2023-04-21T01:43:30.813Z,25.83
2023-04-21T01:46:20.946Z,32.15
2023-04-21T01:49:09.625Z,26.25
2023-04-21T01:51:57.146Z,27.30
2023-04-21T01:54:45.139Z,24.95
2023-04-21T01:57:36.298Z,25.92
2023-04-21T02:00:23.811Z,27.45
2023-04-21T02:03:11.519Z,30.58
2023-04-21T02:05:59.407Z,27.30
2023-04-21T02:08:46.924Z,26.27
2023-04-21T02:11:35.686Z,24.73
2023-04-21T02:14:25.368Z,28.25
2023-04-21T02:17:13.465Z,24.50
2023-04-21T02:20:03.397Z,26.63
2023-04-21T02:22:51.569Z,28.10
2023-04-21T02:25:39.462Z,27.45
2023-04-21T02:28:27.212Z,26.92
2023-04-21T02:31:16.567Z,24.67
2023-04-21T02:34:04.014Z,31.75
2023-04-21T02:36:52.137Z,27.63
2023-04-21T02:39:40.114Z,29.13
2023-04-21T02:42:27.445Z,27.52
2023-04-21T02:45:14.916Z,29.17
2023-04-21T02:48:04.061Z,27.02
2023-04-21T02:50:53.276Z,32.78
2023-04-21T02:53:41.560Z,25.70
2023-04-21T02:56:29.120Z,25.58
2023-04-21T02:59:16.834Z,30.33
2023-04-21T03:02:05.168Z,27.17
2023-04-21T03:04:54.119Z,28.10
2023-04-21T03:07:41.674Z,30.45
2023-04-21T03:10:29.197Z,32.47
2023-04-21T03:13:17.243Z,34.10
2023-04-21T03:16:04.829Z,27.02
2023-04-21T03:18:52.666Z,35.13
2023-04-21T03:21:41.554Z,33.97
2023-04-21T03:24:29.065Z,31.90
2023-04-21T03:27:16.465Z,31.88
2023-04-21T03:30:04.154Z,33.88
2023-04-21T03:32:51.967Z,32.40
2023-04-21T03:35:41.271Z,28.58
2023-04-21T03:38:31.562Z,33.03
2023-04-21T03:41:19.384Z,32.08
2023-04-21T03:44:06.978Z,29.38
2023-04-21T03:46:54.976Z,31.58
2023-04-21T03:49:44.229Z,37.45
2023-04-21T03:52:31.563Z,32.90
2023-04-21T03:55:20.634Z,30.92
2023-04-21T03:58:08.168Z,27.83
2023-04-21T04:00:55.863Z,31.33
2023-04-21T04:03:43.490Z,35.42
2023-04-21T04:06:32.186Z,33.17
2023-04-21T04:09:19.910Z,35.45
2023-04-21T04:12:11.117Z,31.55
2023-04-21T04:14:59.248Z,30.10
2023-04-21T04:17:46.794Z,33.92
2023-04-21T04:20:34.712Z,30.58
2023-04-21T04:23:22.131Z,30.40
2023-04-21T04:26:09.565Z,31.70
2023-04-21T04:29:00.507Z,26.73
2023-04-21T04:31:48.220Z,34.53
2023-04-21T04:34:37.581Z,31.38
2023-04-21T04:37:25.434Z,33.42
2023-04-21T04:40:16.549Z,30.80
2023-04-21T04:43:04.292Z,30.48
2023-04-21T04:45:53.409Z,31.15
2023-04-21T04:48:41.682Z,31.30
2023-04-21T04:51:29.403Z,32.65
2023-04-21T04:54:16.996Z,28.77
2023-04-21T04:57:04.845Z,31.73
2023-04-21T04:59:57.017Z,33.63
2023-04-21T05:02:46.432Z,30.48
2023-04-21T05:05:34.242Z,32.95
2023-04-21T05:08:21.902Z,37.42
2023-04-21T05:11:09.902Z,30.40
2023-04-21T05:13:57.652Z,35.13
2023-04-21T05:16:45.299Z,28.42
2023-04-21T05:19:36.949Z,34.42
2023-04-21T05:22:24.586Z,27.00
2023-04-21T05:25:15.332Z,29.85
2023-04-21T05:28:02.672Z,25.67
2023-04-21T05:30:50.133Z,29.00
2023-04-21T05:33:38.129Z,28.00
2023-04-21T05:36:28.004Z,23.48
2023-04-21T05:39:16.457Z,27.67
2023-04-21T05:42:04.188Z,27.73
2023-04-21T05:44:52.013Z,27.20
2023-04-21T05:47:39.590Z,29.00
2023-04-21T05:50:34.004Z,29.23
2023-04-21T05:53:23.665Z,25.75
2023-04-21T05:56:11.293Z,29.10
2023-04-21T05:58:58.714Z,22.02
2023-04-21T06:01:46.345Z,23.70
2023-04-21T06:04:34.080Z,24.30
2023-04-21T06:07:22.005Z,23.13
2023-04-21T06:10:12.313Z,24.40
2023-04-21T06:12:59.947Z,21.70
2023-04-21T06:15:47.486Z,23.38
2023-04-21T06:18:34.991Z,20.50
2023-04-21T06:21:22.557Z,21.92
2023-04-21T06:24:10.722Z,21.85
2023-04-21T06:26:59.679Z,23.83
2023-04-21T06:29:47.469Z,22.17
2023-04-21T06:32:34.880Z,21.80
2023-04-21T06:35:22.450Z,17.17
2023-04-21T06:38:10.143Z,20.20
2023-04-21T06:40:57.817Z,20.05
2023-04-21T06:43:46.902Z,18.20
2023-04-21T06:46:34.465Z,21.58
2023-04-21T06:49:22.395Z,16.33
2023-04-21T06:52:10.048Z,17.42
2023-04-21T06:54:57.586Z,19.35
2023-04-21T06:57:45.073Z,22.60
2023-04-21T07:00:34.081Z,20.08
2023-04-21T07:03:21.856Z,22.65
2023-04-21T07:06:09.723Z,22.52
2023-04-21T07:08:57.295Z,23.98
2023-04-21T07:11:44.832Z,19.42
2023-04-21T07:14:32.758Z,17.58
2023-04-21T07:17:21.791Z,18.60
2023-04-21T07:20:10.284Z,19.75
2023-04-21T07:22:57.606Z,17.45
2023-04-21T07:25:45.449Z,19.10
2023-04-21T07:28:33.074Z,16.65
2023-04-21T07:31:20.899Z,18.55
2023-04-21T07:34:09.936Z,19.60
2023-04-21T07:36:57.909Z,17.42
2023-04-21T07:39:45.732Z,16.85
2023-04-21T07:42:33.181Z,17.70
2023-04-21T07:45:21.050Z,19.52
2023-04-21T07:48:08.495Z,19.35
2023-04-21T07:50:58.587Z,17.80
2023-04-21T07:53:46.440Z,18.20
2023-04-21T07:56:34.182Z,15.98
2023-04-21T07:59:21.679Z,14.27
2023-04-21T08:02:10.119Z,15.95
2023-04-21T08:04:57.967Z,17.30
2023-04-21T08:07:47.306Z,16.50
2023-04-21T08:10:35.053Z,13.90
2023-04-21T08:13:25.267Z,15.85
2023-04-21T08:16:13.564Z,16.17
2023-04-21T08:19:01.639Z,18.38
2023-04-21T08:21:49.152Z,18.30
2023-04-21T08:24:38.172Z,16.88
2023-04-21T08:27:25.700Z,17.55
2023-04-21T08:30:14.165Z,19.08
2023-04-21T08:33:01.967Z,15.25
2023-04-21T08:36:02.541Z,17.83
2023-04-21T08:38:51.960Z,15.23
2023-04-21T08:41:42.147Z,14.68
2023-04-21T08:44:30.041Z,14.35
2023-04-21T08:47:17.648Z,12.68
2023-04-21T08:50:05.836Z,14.55
2023-04-21T08:52:53.385Z,14.57
2023-04-21T08:55:41.842Z,15.40
2023-04-21T08:58:30.621Z,13.93
2023-04-21T09:01:18.819Z,15.55
2023-04-21T09:04:20.006Z,13.20
2023-04-21T09:07:08.933Z,13.55
2023-04-21T09:09:57.573Z,11.35
2023-04-21T09:12:52.754Z,11.02
2023-04-21T09:15:42.358Z,11.27
2023-04-21T09:18:35.411Z,12.23
2023-04-21T09:21:31.961Z,10.73
2023-04-21T09:24:20.478Z,11.88
2023-04-21T09:27:07.868Z,10.88
2023-04-21T09:29:55.342Z,10.68
2023-04-21T09:32:44.657Z,12.13
2023-04-21T09:35:35.540Z,13.27
2023-04-21T09:38:24.460Z,11.65
2023-04-21T09:41:11.772Z,10.93
2023-04-21T09:44:01.526Z,10.10
2023-04-21T09:46:51.534Z,13.63
2023-04-21T09:49:44.872Z,11.18
2023-04-21T09:52:33.658Z,10.25
2023-04-21T09:55:27.189Z,13.02
2023-04-21T09:58:17.379Z,12.07
2023-04-21T10:01:05.122Z,13.15
2023-04-21T10:03:53.580Z,13.00
2023-04-21T10:06:43.295Z,10.02
2023-04-21T10:09:36.223Z,12.20
2023-04-21T10:12:24.229Z,11.35
2023-04-21T10:15:31.416Z,9.10
2023-04-21T10:21:08.996Z,8.05
2023-04-21T10:23:59.350Z,10.55
2023-04-21T10:26:46.925Z,7.43
2023-04-21T10:32:42.808Z,8.02
2023-04-21T10:36:00.989Z,8.95
2023-04-21T10:38:57.932Z,8.20
2023-04-21T10:41:46.462Z,10.73
2023-04-21T10:44:34.314Z,11.23
2023-04-21T10:47:28.810Z,8.55
2023-04-21T10:50:20.390Z,9.48
2023-04-21T10:53:11.520Z,9.30
2023-04-21T10:56:00.804Z,8.10
2023-04-21T10:58:51.397Z,10.25
2023-04-21T11:01:41.585Z,7.32
2023-04-21T11:04:30.223Z,7.00
2023-04-21T11:07:20.254Z,8.05
2023-04-21T11:10:10.108Z,8.25
2023-04-21T11:13:00.205Z,7.07
2023-04-21T11:16:06.160Z,8.52
2023-04-21T11:18:54.080Z,10.27
2023-04-21T11:21:41.633Z,8.65
2023-04-21T11:24:29.275Z,10.93
2023-04-21T11:27:17.958Z,7.05
2023-04-21T11:30:09.206Z,8.27
2023-04-21T11:32:57.094Z,7.55
2023-04-21T11:35:45.114Z,7.80
2023-04-21T11:38:39.106Z,6.65
2023-04-21T11:41:27.045Z,6.85
2023-04-21T11:44:15.514Z,8.05
2023-04-21T11:47:15.660Z,7.63
2023-04-21T11:50:04.182Z,6.55
2023-04-21T11:52:53.732Z,7.82
2023-04-21T11:55:44.463Z,6.55
2023-04-21T11:58:33.191Z,8.05
2023-04-21T12:01:23.432Z,8.75
2023-04-21T12:04:16.613Z,7.35
2023-04-21T12:07:04.971Z,8.30
2023-04-21T12:09:53.296Z,8.10
2023-04-21T12:12:41.768Z,8.45
2023-04-21T12:15:31.951Z,6.13
2023-04-21T12:18:19.982Z,11.00
2023-04-21T12:21:08.825Z,8.80
2023-04-21T12:23:56.749Z,9.15
2023-04-21T12:26:44.613Z,6.65
2023-04-21T12:29:31.977Z,8.93
2023-04-21T12:32:19.479Z,6.75
2023-04-21T12:35:11.136Z,9.23
2023-04-21T12:37:59.890Z,6.30
2023-04-21T12:40:47.612Z,6.55
2023-04-21T12:43:35.328Z,8.75
2023-04-21T12:46:22.999Z,9.32
2023-04-21T12:49:12.317Z,6.13
2023-04-21T12:52:00.109Z,6.15
2023-04-21T12:54:49.048Z,6.78
2023-04-21T12:57:37.041Z,6.60
2023-04-21T13:00:24.629Z,7.35
2023-04-21T13:03:12.984Z,7.55
2023-04-21T13:06:03.121Z,9.05
2023-04-21T13:08:50.867Z,6.53
2023-04-21T13:11:39.980Z,8.35
2023-04-21T13:14:27.652Z,8.15
2023-04-21T13:17:16.699Z,6.88
2023-04-21T13:20:04.844Z,7.93
2023-04-21T13:22:52.652Z,6.40
2023-04-21T13:25:40.332Z,8.25
2023-04-21T13:28:30.281Z,6.85
2023-04-21T13:31:18.103Z,7.60
2023-04-21T13:34:06.031Z,6.47
2023-04-21T13:36:54.765Z,5.80
2023-04-21T13:39:42.648Z,9.43
2023-04-21T13:42:30.547Z,8.73
2023-04-21T13:45:20.379Z,9.00
2023-04-21T13:48:08.560Z,9.13
2023-04-21T13:50:56.582Z,11.23
2023-04-21T13:53:44.391Z,8.68
2023-04-21T13:56:32.510Z,6.15
2023-04-21T13:59:21.211Z,6.53
2023-04-21T14:02:10.377Z,7.85
2023-04-21T14:04:58.340Z,8.32
2023-04-21T14:07:46.528Z,8.18
2023-04-21T14:10:34.794Z,7.35
2023-04-21T14:13:34.572Z,8.07
2023-04-21T14:16:25.587Z,7.65
2023-04-21T14:19:15.607Z,9.48
2023-04-21T14:22:03.255Z,8.35
2023-04-21T14:24:50.842Z,7.65
2023-04-21T14:27:38.685Z,8.93
2023-04-21T14:30:26.751Z,6.80
2023-04-21T14:33:14.169Z,7.10
2023-04-21T14:36:06.265Z,8.13
2023-04-21T14:38:53.966Z,7.68
2023-04-21T14:41:41.791Z,7.50
2023-04-21T14:44:29.376Z,9.77
2023-04-21T14:47:17.511Z,8.05
2023-04-21T14:50:06.783Z,8.10
2023-04-21T14:52:56.408Z,8.68
2023-04-21T14:55:44.117Z,9.75
2023-04-21T14:58:31.662Z,7.93
2023-04-21T15:01:19.583Z,7.47
2023-04-21T15:04:07.794Z,7.13
2023-04-21T15:06:55.787Z,8.25
2023-04-21T15:09:45.955Z,6.47
2023-04-21T15:12:35.981Z,8.32
2023-04-21T15:15:24.559Z,7.18
2023-04-21T15:18:12.531Z,6.90
2023-04-21T15:21:00.081Z,6.95
2023-04-21T15:23:47.835Z,8.00
2023-04-21T15:26:37.468Z,7.50
2023-04-21T15:29:25.351Z,8.20
2023-04-21T15:32:12.823Z,7.28
2023-04-21T15:35:01.147Z,6.47
2023-04-21T15:37:48.921Z,7.68
2023-04-21T15:40:46.395Z,6.57
2023-04-21T15:43:44.865Z,8.70
2023-04-21T15:46:34.605Z,10.55
2023-04-21T15:49:24.484Z,9.85
2023-04-21T15:52:13.966Z,8.35
2023-04-21T15:55:02.207Z,6.68
2023-04-21T15:57:50.140Z,7.95
2023-04-21T16:00:39.055Z,7.65
2023-04-21T16:03:27.379Z,8.95
2023-04-21T16:06:15.162Z,7.25
2023-04-21T16:09:03.022Z,7.63
2023-04-21T16:11:51.579Z,6.93
2023-04-21T16:14:54.481Z,6.57
2023-04-21T16:17:48.882Z,7.68
2023-04-21T16:20:37.325Z,10.45
2023-04-21T16:23:25.404Z,7.65
2023-04-21T16:26:13.152Z,10.85
2023-04-21T16:29:00.899Z,6.78
2023-04-21T16:31:48.723Z,10.00
2023-04-21T16:34:37.975Z,6.70
2023-04-21T16:37:26.388Z,9.68
2023-04-21T16:40:14.135Z,9.60
2023-04-21T16:43:02.074Z,10.65
2023-04-21T16:45:49.812Z,8.00
2023-04-21T16:48:37.759Z,7.78
2023-04-21T16:51:28.661Z,7.65
2023-04-21T16:54:16.683Z,6.70
2023-04-21T16:57:04.346Z,7.93
2023-04-21T16:59:52.972Z,8.93
2023-04-21T17:02:40.726Z,6.75
2023-04-21T17:05:28.678Z,5.88
2023-04-21T17:08:17.414Z,6.95
2023-04-21T17:11:05.132Z,6.82
2023-04-21T17:13:52.680Z,7.28
2023-04-21T17:16:40.577Z,7.43
2023-04-21T17:19:28.685Z,9.73
2023-04-21T17:22:16.414Z,9.43
2023-04-21T17:25:05.910Z,10.98
2023-04-21T17:27:53.751Z,10.35
2023-04-21T17:30:41.260Z,13.10
2023-04-21T17:33:29.317Z,13.55
2023-04-21T17:36:17.196Z,11.50
2023-04-21T17:39:08.360Z,10.43
2023-04-21T17:41:57.080Z,9.45
2023-04-21T17:44:44.418Z,8.48
2023-04-21T17:47:32.112Z,8.98
2023-04-21T17:50:20.858Z,10.40
2023-04-21T17:53:09.105Z,12.27
2023-04-21T17:55:56.868Z,12.35
2023-04-21T17:58:46.956Z,14.57
2023-04-21T18:01:34.560Z,12.60
2023-04-21T18:04:24.344Z,10.30
2023-04-21T18:07:11.790Z,12.35
2023-04-21T18:09:59.310Z,11.45
2023-04-21T18:12:47.291Z,10.55
2023-04-21T18:15:36.490Z,9.65
2023-04-21T18:18:24.334Z,10.05
2023-04-21T18:21:11.869Z,7.93
2023-04-21T18:23:59.571Z,9.85
2023-04-21T18:26:47.686Z,10.45
2023-04-21T18:29:36.374Z,8.18
2023-04-21T18:32:25.364Z,9.23
2023-04-21T18:35:13.328Z,8.75
2023-04-21T18:38:02.906Z,10.77
2023-04-21T18:40:51.110Z,10.18
2023-04-21T18:43:38.678Z,9.68
2023-04-21T18:46:26.394Z,11.20
2023-04-21T18:49:15.391Z,9.68
2023-04-21T18:52:03.123Z,9.05
2023-04-21T18:54:50.656Z,9.70
2023-04-21T18:57:37.998Z,7.38
2023-04-21T19:00:25.719Z,10.63
2023-04-21T19:03:13.464Z,9.52
2023-04-21T19:06:03.041Z,10.20
2023-04-21T19:08:52.984Z,12.02
2023-04-21T19:11:41.228Z,11.10
2023-04-21T19:14:34.629Z,9.60
2023-04-21T19:17:27.431Z,8.07
2023-04-21T19:20:15.336Z,9.57
2023-04-21T19:23:04.674Z,8.23
2023-04-21T19:25:54.635Z,7.78
2023-04-21T19:28:42.821Z,7.63
2023-04-21T19:31:30.274Z,6.95
2023-04-21T19:34:18.085Z,7.80
2023-04-21T19:37:05.874Z,11.60
2023-04-21T19:39:55.118Z,7.85
2023-04-21T19:42:42.738Z,8.75
2023-04-21T19:45:30.683Z,8.85
2023-04-21T19:48:19.811Z,10.43
2023-04-21T19:51:07.489Z,7.85
2023-04-21T19:54:09.919Z,9.27
2023-04-21T19:56:59.921Z,9.52
2023-04-21T19:59:49.093Z,8.18
2023-04-21T20:02:36.921Z,8.30
2023-04-21T20:05:24.664Z,6.25
2023-04-21T20:08:11.977Z,9.55
2023-04-21T20:10:59.577Z,7.47
2023-04-21T20:13:48.624Z,7.03
2023-04-21T20:16:36.150Z,9.75
2023-04-21T20:19:27.094Z,12.00
2023-04-21T20:22:14.611Z,8.35
2023-04-21T20:25:02.247Z,12.63
2023-04-21T20:27:50.161Z,9.35
2023-04-21T20:30:38.900Z,8.55
2023-04-21T20:33:26.625Z,8.07
2023-04-21T20:36:14.119Z,9.75
2023-04-21T20:39:02.745Z,10.35
2023-04-21T20:41:58.120Z,9.55
2023-04-21T20:44:56.605Z,15.33
2023-04-21T20:47:45.449Z,11.15
2023-04-21T20:50:33.432Z,9.85
2023-04-21T20:53:21.099Z,11.90
2023-04-21T20:56:09.091Z,8.38
2023-04-21T20:58:56.826Z,13.15
2023-04-21T21:01:45.078Z,9.57
2023-04-21T21:04:33.936Z,10.20
2023-04-21T21:07:21.575Z,10.27
2023-04-21T21:10:11.365Z,10.48
2023-04-21T21:12:59.772Z,10.85
2023-04-21T21:15:47.786Z,10.45
2023-04-21T21:18:36.064Z,11.43
2023-04-21T21:21:25.064Z,11.93
2023-04-21T21:24:12.887Z,9.23
2023-04-21T21:27:01.511Z,11.88
2023-04-21T21:29:49.447Z,9.90
2023-04-21T21:32:36.936Z,8.48
2023-04-21T21:35:24.359Z,9.13
2023-04-21T21:38:13.369Z,8.90
2023-04-21T21:41:01.219Z,11.88
2023-04-21T21:43:48.636Z,9.20
2023-04-21T21:46:36.442Z,10.07
2023-04-21T21:49:23.884Z,9.73
2023-04-21T21:52:11.797Z,9.50
2023-04-21T21:55:01.065Z,8.95
2023-04-21T21:57:48.758Z,9.88
2023-04-21T22:00:39.050Z,9.73
2023-04-21T22:03:27.556Z,11.15
2023-04-21T22:06:17.161Z,11.35
2023-04-21T22:09:06.190Z,9.07
2023-04-21T22:11:56.778Z,10.68
2023-04-21T22:14:45.551Z,11.75
2023-04-21T22:17:34.729Z,9.35
2023-04-21T22:20:22.943Z,9.68
2023-04-21T22:23:10.664Z,10.15
2023-04-21T22:25:58.128Z,10.18
2023-04-21T22:28:50.011Z,12.75
2023-04-21T22:31:38.153Z,11.80
2023-04-21T22:34:25.618Z,11.02
2023-04-21T22:37:13.268Z,11.30
2023-04-21T22:40:00.997Z,10.45
2023-04-21T22:42:48.474Z,11.20
2023-04-21T22:45:37.732Z,13.48
2023-04-21T22:48:26.301Z,10.10
2023-04-21T22:51:14.998Z,11.93
2023-04-21T22:54:03.370Z,11.50
2023-04-21T22:56:51.005Z,11.57
2023-04-21T22:59:38.921Z,10.55
2023-04-21T23:02:28.335Z,10.18
2023-04-21T23:05:15.947Z,16.10
2023-04-21T23:08:03.375Z,9.80
2023-04-21T23:10:51.134Z,11.40
2023-04-21T23:13:39.993Z,13.27
2023-04-21T23:16:27.423Z,10.93
2023-04-21T23:19:16.596Z,11.70
2023-04-21T23:22:04.122Z,10.60
2023-04-21T23:24:51.579Z,12.68
2023-04-21T23:27:39.576Z,12.30
2023-04-21T23:30:27.657Z,11.00
2023-04-21T23:33:15.304Z,10.15
2023-04-21T23:36:04.362Z,11.75
2023-04-21T23:38:52.040Z,11.80
2023-04-21T23:41:39.567Z,10.93
2023-04-21T23:44:27.382Z,9.35
2023-04-21T23:47:14.941Z,8.93
2023-04-21T23:50:02.669Z,11.38
2023-04-21T23:52:51.483Z,9.98
2023-04-21T23:55:39.294Z,9.75
2023-04-21T23:58:27.033Z,8.27
